createdAt,value
2019-03-23T00:00:51.475Z,1014.36
2019-03-23T00:01:51.399Z,1014.36
2019-03-23T00:02:51.355Z,1014.37
2019-03-23T00:03:51.303Z,1014.37
2019-03-23T00:04:51.253Z,1014.32
2019-03-23T00:05:51.216Z,1014.30
2019-03-23T00:06:51.144Z,1014.29
2019-03-23T00:07:51.089Z,1014.33
2019-03-23T00:08:51.037Z,1014.30
2019-03-23T00:09:50.989Z,1014.32
2019-03-23T00:10:50.954Z,1014.29
2019-03-23T00:11:50.877Z,1014.32
2019-03-23T00:12:50.817Z,1014.28
2019-03-23T00:13:50.771Z,1014.29
2019-03-23T00:14:50.719Z,1014.29
2019-03-23T00:15:50.690Z,1014.32
2019-03-23T00:16:50.617Z,1014.29
2019-03-23T00:17:50.564Z,1014.31
2019-03-23T00:18:50.506Z,1014.33
2019-03-23T00:19:50.454Z,1014.30
2019-03-23T00:20:50.427Z,1014.27
2019-03-23T00:21:50.351Z,1014.28
2019-03-23T00:22:50.296Z,1014.27
2019-03-23T00:23:50.248Z,1014.23
2019-03-23T00:24:50.189Z,1014.27
2019-03-23T00:25:50.172Z,1014.24
2019-03-23T00:26:50.089Z,1014.20
2019-03-23T00:27:50.037Z,1014.21
2019-03-23T00:28:49.983Z,1014.24
2019-03-23T00:29:49.928Z,1014.20
2019-03-23T00:30:49.898Z,1014.22
2019-03-23T00:31:49.821Z,1014.20
2019-03-23T00:32:49.773Z,1014.19
2019-03-23T00:33:49.719Z,1014.18
2019-03-23T00:34:49.667Z,1014.21
2019-03-23T00:35:49.669Z,1014.18
2019-03-23T00:36:49.562Z,1014.15
2019-03-23T00:37:49.510Z,1014.16
2019-03-23T00:38:49.454Z,1014.11
2019-03-23T00:39:49.403Z,1014.13
2019-03-23T00:40:49.346Z,1014.16
2019-03-23T00:41:49.316Z,1014.14
2019-03-23T00:42:49.272Z,1014.12
2019-03-23T00:43:49.193Z,1014.11
2019-03-23T00:44:49.133Z,1014.09
2019-03-23T00:45:49.087Z,1014.12
2019-03-23T00:46:49.051Z,1014.15
2019-03-23T00:47:48.971Z,1014.17
2019-03-23T00:48:48.923Z,1014.20
2019-03-23T00:49:48.872Z,1014.20
2019-03-23T00:50:48.821Z,1014.20
2019-03-23T00:51:48.786Z,1014.18
2019-03-23T00:52:48.710Z,1014.18
2019-03-23T00:53:48.651Z,1014.19
2019-03-23T00:54:48.623Z,1014.17
2019-03-23T00:55:48.543Z,1014.15
2019-03-23T00:56:48.516Z,1014.16
2019-03-23T00:57:48.448Z,1014.16
2019-03-23T00:58:48.387Z,1014.15
2019-03-23T00:59:48.338Z,1014.16
2019-03-23T01:00:48.283Z,1014.13
2019-03-23T01:01:48.261Z,1014.12
2019-03-23T01:02:48.180Z,1014.12
2019-03-23T01:03:48.133Z,1014.11
2019-03-23T01:04:48.074Z,1014.12
2019-03-23T01:05:48.019Z,1014.13
2019-03-23T01:06:52.098Z,1014.11
2019-03-23T01:07:47.913Z,1014.14
2019-03-23T01:08:47.861Z,1014.17
2019-03-23T01:09:47.809Z,1014.17
2019-03-23T01:10:47.758Z,1014.19
2019-03-23T01:11:47.718Z,1014.19
2019-03-23T01:12:47.643Z,1014.17
2019-03-23T01:13:47.595Z,1014.22
2019-03-23T01:14:47.543Z,1014.19
2019-03-23T01:15:48.214Z,1014.21
2019-03-23T01:16:47.458Z,1014.21
2019-03-23T01:17:47.383Z,1014.22
2019-03-23T01:18:47.330Z,1014.22
2019-03-23T01:19:47.272Z,1014.22
2019-03-23T01:20:49.795Z,1014.28
2019-03-23T01:21:47.188Z,1014.25
2019-03-23T01:22:47.118Z,1014.30
2019-03-23T01:23:47.061Z,1014.32
2019-03-23T01:24:47.006Z,1014.33
2019-03-23T01:25:46.956Z,1014.37
2019-03-23T01:26:46.926Z,1014.40
2019-03-23T01:27:46.848Z,1014.37
2019-03-23T01:28:46.788Z,1014.39
2019-03-23T01:29:46.741Z,1014.38
2019-03-23T01:30:46.746Z,1014.40
2019-03-23T01:31:46.655Z,1014.38
2019-03-23T01:32:46.599Z,1014.40
2019-03-23T01:33:46.527Z,1014.38
2019-03-23T01:34:46.486Z,1014.35
2019-03-23T01:35:46.487Z,1014.34
2019-03-23T01:36:46.388Z,1014.35
2019-03-23T01:37:46.310Z,1014.34
2019-03-23T01:38:46.263Z,1014.43
2019-03-23T01:39:46.204Z,1014.37
2019-03-23T01:40:46.153Z,1014.32
2019-03-23T01:41:46.118Z,1014.29
2019-03-23T01:42:46.045Z,1014.30
2019-03-23T01:43:46.001Z,1014.28
2019-03-23T01:44:45.938Z,1014.26
2019-03-23T01:45:45.882Z,1014.25
2019-03-23T01:46:45.851Z,1014.23
2019-03-23T01:47:45.779Z,1014.24
2019-03-23T01:48:45.725Z,1014.24
2019-03-23T01:49:45.665Z,1014.23
2019-03-23T01:50:45.623Z,1014.26
2019-03-23T01:51:45.589Z,1014.23
2019-03-23T01:52:45.510Z,1014.23
2019-03-23T01:53:45.455Z,1014.26
2019-03-23T01:54:45.405Z,1014.25
2019-03-23T01:55:45.344Z,1014.27
2019-03-23T01:56:45.318Z,1014.29
2019-03-23T01:57:45.246Z,1014.30
2019-03-23T01:58:45.190Z,1014.25
2019-03-23T01:59:45.136Z,1014.26
2019-03-23T02:00:45.081Z,1014.28
2019-03-23T02:01:45.052Z,1014.24
2019-03-23T02:02:44.975Z,1014.22
2019-03-23T02:03:44.917Z,1014.19
2019-03-23T02:04:44.870Z,1014.22
2019-03-23T02:05:44.815Z,1014.22
2019-03-23T02:06:44.783Z,1014.20
2019-03-23T02:07:44.704Z,1014.20
2019-03-23T02:08:44.653Z,1014.23
2019-03-23T02:09:44.598Z,1014.23
2019-03-23T02:10:44.551Z,1014.23
2019-03-23T02:11:44.514Z,1014.23
2019-03-23T02:12:44.435Z,1014.20
2019-03-23T02:13:44.387Z,1014.28
2019-03-23T02:14:44.332Z,1014.24
2019-03-23T02:15:44.277Z,1014.21
2019-03-23T02:16:44.252Z,1014.25
2019-03-23T02:17:44.175Z,1014.26
2019-03-23T02:18:44.114Z,1014.26
2019-03-23T02:19:44.059Z,1014.28
2019-03-23T02:20:44.010Z,1014.29
2019-03-23T02:21:43.977Z,1014.22
2019-03-23T02:22:43.906Z,1014.25
2019-03-23T02:23:43.845Z,1014.25
2019-03-23T02:24:43.794Z,1014.30
2019-03-23T02:25:43.741Z,1014.29
2019-03-23T02:26:43.716Z,1014.30
2019-03-23T02:27:43.636Z,1014.33
2019-03-23T02:28:43.572Z,1014.30
2019-03-23T02:29:43.525Z,1014.35
2019-03-23T02:30:43.470Z,1014.35
2019-03-23T02:31:43.441Z,1014.35
2019-03-23T02:32:43.371Z,1014.37
2019-03-23T02:33:43.309Z,1014.38
2019-03-23T02:34:43.260Z,1014.37
2019-03-23T02:35:43.206Z,1014.40
2019-03-23T02:36:43.171Z,1014.42
2019-03-23T02:37:43.104Z,1014.42
2019-03-23T02:38:43.043Z,1014.45
2019-03-23T02:39:42.984Z,1014.48
2019-03-23T02:40:42.938Z,1014.44
2019-03-23T02:41:42.903Z,1014.52
2019-03-23T02:42:42.833Z,1014.51
2019-03-23T02:43:42.781Z,1014.53
2019-03-23T02:44:42.714Z,1014.53
2019-03-23T02:45:42.671Z,1014.57
2019-03-23T02:46:42.639Z,1014.59
2019-03-23T02:47:42.557Z,1014.63
2019-03-23T02:48:42.497Z,1014.62
2019-03-23T02:49:42.447Z,1014.62
2019-03-23T02:50:42.396Z,1014.61
2019-03-23T02:51:42.339Z,1014.64
2019-03-23T02:52:42.312Z,1014.59
2019-03-23T02:53:42.234Z,1014.56
2019-03-23T02:54:42.180Z,1014.56
2019-03-23T02:55:42.133Z,1014.59
2019-03-23T02:56:42.067Z,1014.60
2019-03-23T02:57:42.043Z,1014.61
2019-03-23T02:58:41.958Z,1014.62
2019-03-23T02:59:41.968Z,1014.63
2019-03-23T03:00:41.847Z,1014.64
2019-03-23T03:01:41.798Z,1014.66
2019-03-23T03:02:41.761Z,1014.66
2019-03-23T03:03:41.688Z,1014.70
2019-03-23T03:04:41.635Z,1014.69
2019-03-23T03:05:41.591Z,1014.71
2019-03-23T03:06:41.524Z,1014.76
2019-03-23T03:07:43.253Z,1014.77
2019-03-23T03:08:41.415Z,1014.79
2019-03-23T03:09:41.372Z,1014.76
2019-03-23T03:10:41.305Z,1014.82
2019-03-23T03:11:41.259Z,1014.82
2019-03-23T03:12:41.220Z,1014.84
2019-03-23T03:13:41.149Z,1014.86
2019-03-23T03:14:41.090Z,1014.86
2019-03-23T03:15:41.033Z,1014.87
2019-03-23T03:16:40.982Z,1014.86
2019-03-23T03:17:40.950Z,1014.89
2019-03-23T03:18:40.873Z,1014.89
2019-03-23T03:19:40.825Z,1014.94
2019-03-23T03:20:40.770Z,1014.96
2019-03-23T03:21:40.733Z,1014.98
2019-03-23T03:22:40.685Z,1014.97
2019-03-23T03:23:40.608Z,1015.05
2019-03-23T03:24:40.548Z,1015.02
2019-03-23T03:25:40.504Z,1015.01
2019-03-23T03:26:40.441Z,1014.99
2019-03-23T03:27:40.411Z,1015.00
2019-03-23T03:28:40.330Z,1015.03
2019-03-23T03:29:40.284Z,1015.01
2019-03-23T03:30:40.223Z,1015.04
2019-03-23T03:31:40.172Z,1015.07
2019-03-23T03:32:40.149Z,1015.07
2019-03-23T03:33:40.061Z,1015.07
2019-03-23T03:34:40.011Z,1015.14
2019-03-23T03:35:39.967Z,1015.17
2019-03-23T03:36:39.903Z,1015.16
2019-03-23T03:37:39.883Z,1015.15
2019-03-23T03:38:39.788Z,1015.15
2019-03-23T03:39:39.739Z,1015.14
2019-03-23T03:40:39.687Z,1015.16
2019-03-23T03:41:39.631Z,1015.14
2019-03-23T03:42:39.625Z,1015.17
2019-03-23T03:43:39.523Z,1015.13
2019-03-23T03:44:39.470Z,1015.15
2019-03-23T03:45:39.408Z,1015.16
2019-03-23T03:46:39.358Z,1015.12
2019-03-23T03:47:41.169Z,1015.16
2019-03-23T03:48:39.251Z,1015.21
2019-03-23T03:49:39.196Z,1015.17
2019-03-23T03:50:39.136Z,1015.22
2019-03-23T03:51:39.075Z,1015.21
2019-03-23T03:52:39.069Z,1015.20
2019-03-23T03:53:38.982Z,1015.18
2019-03-23T03:54:38.928Z,1015.19
2019-03-23T03:55:38.878Z,1015.21
2019-03-23T03:56:38.810Z,1015.21
2019-03-23T03:57:38.780Z,1015.20
2019-03-23T03:58:38.708Z,1015.21
2019-03-23T03:59:38.658Z,1015.21
2019-03-23T04:00:38.596Z,1015.23
2019-03-23T04:01:38.547Z,1015.24
2019-03-23T04:02:38.508Z,1015.25
2019-03-23T04:03:38.435Z,1015.25
2019-03-23T04:04:38.375Z,1015.25
2019-03-23T04:05:38.324Z,1015.25
2019-03-23T04:06:38.270Z,1015.25
2019-03-23T04:07:38.244Z,1015.27
2019-03-23T04:08:38.160Z,1015.29
2019-03-23T04:09:40.442Z,1015.33
2019-03-23T04:10:38.055Z,1015.31
2019-03-23T04:11:38.001Z,1015.28
2019-03-23T04:12:37.970Z,1015.25
2019-03-23T04:13:37.885Z,1015.24
2019-03-23T04:14:37.836Z,1015.24
2019-03-23T04:15:37.785Z,1015.26
2019-03-23T04:16:37.732Z,1015.21
2019-03-23T04:17:37.702Z,1015.20
2019-03-23T04:18:37.617Z,1015.16
2019-03-23T04:19:37.567Z,1015.22
2019-03-23T04:20:37.505Z,1015.20
2019-03-23T04:21:37.458Z,1015.24
2019-03-23T04:22:37.430Z,1015.23
2019-03-23T04:23:37.343Z,1015.26
2019-03-23T04:24:37.289Z,1015.33
2019-03-23T04:25:37.244Z,1015.36
2019-03-23T04:26:39.268Z,1015.40
2019-03-23T04:27:37.152Z,1015.45
2019-03-23T04:28:37.070Z,1015.43
2019-03-23T04:29:37.018Z,1015.44
2019-03-23T04:30:36.961Z,1015.48
2019-03-23T04:31:36.908Z,1015.50
2019-03-23T04:32:36.881Z,1015.53
2019-03-23T04:33:36.798Z,1015.52
2019-03-23T04:34:36.746Z,1015.56
2019-03-23T04:35:36.689Z,1015.60
2019-03-23T04:36:36.649Z,1015.66
2019-03-23T04:37:36.613Z,1015.71
2019-03-23T04:38:36.525Z,1015.71
2019-03-23T04:39:36.468Z,1015.74
2019-03-23T04:40:36.423Z,1015.75
2019-03-23T04:41:36.379Z,1015.74
2019-03-23T04:42:36.331Z,1015.78
2019-03-23T04:43:36.252Z,1015.79
2019-03-23T04:44:36.196Z,1015.85
2019-03-23T04:45:36.143Z,1015.83
2019-03-23T04:46:36.089Z,1015.84
2019-03-23T04:47:36.074Z,1015.88
2019-03-23T04:48:35.978Z,1015.93
2019-03-23T04:49:35.933Z,1015.95
2019-03-23T04:50:35.875Z,1015.93
2019-03-23T04:51:35.811Z,1015.95
2019-03-23T04:52:35.780Z,1015.90
2019-03-23T04:53:35.705Z,1015.93
2019-03-23T04:54:35.651Z,1015.94
2019-03-23T04:55:35.594Z,1015.94
2019-03-23T04:56:35.543Z,1015.99
2019-03-23T04:57:35.506Z,1015.96
2019-03-23T04:58:35.432Z,1016.02
2019-03-23T04:59:35.376Z,1016.00
2019-03-23T05:00:35.318Z,1016.00
2019-03-23T05:01:35.270Z,1016.03
2019-03-23T05:02:35.235Z,1016.04
2019-03-23T05:03:35.154Z,1016.02
2019-03-23T05:04:35.103Z,1015.99
2019-03-23T05:05:35.052Z,1016.03
2019-03-23T05:06:34.987Z,1016.04
2019-03-23T05:07:34.961Z,1016.01
2019-03-23T05:08:34.882Z,1016.01
2019-03-23T05:09:34.826Z,1016.01
2019-03-23T05:10:34.771Z,1016.02
2019-03-23T05:11:34.715Z,1016.04
2019-03-23T05:12:34.694Z,1016.05
2019-03-23T05:13:34.609Z,1016.03
2019-03-23T05:14:34.558Z,1016.03
2019-03-23T05:15:34.500Z,1016.00
2019-03-23T05:16:34.454Z,1016.03
2019-03-23T05:17:34.423Z,1015.99
2019-03-23T05:18:34.336Z,1016.02
2019-03-23T05:19:34.286Z,1016.03
2019-03-23T05:20:34.227Z,1016.03
2019-03-23T05:21:34.169Z,1016.04
2019-03-23T05:22:34.143Z,1016.07
2019-03-23T05:23:34.061Z,1016.07
2019-03-23T05:24:34.013Z,1016.00
2019-03-23T05:25:33.953Z,1016.10
2019-03-23T05:26:33.900Z,1016.11
2019-03-23T05:27:33.866Z,1016.12
2019-03-23T05:28:33.789Z,1016.11
2019-03-23T05:29:33.738Z,1016.12
2019-03-23T05:30:33.679Z,1016.14
2019-03-23T05:31:33.633Z,1016.13
2019-03-23T05:32:33.601Z,1016.13
2019-03-23T05:33:33.523Z,1016.10
2019-03-23T05:34:33.464Z,1016.15
2019-03-23T05:35:33.414Z,1016.21
2019-03-23T05:36:33.359Z,1016.21
2019-03-23T05:37:33.323Z,1016.27
2019-03-23T05:38:43.558Z,1016.26
2019-03-23T05:39:33.193Z,1016.23
2019-03-23T05:40:33.138Z,1016.28
2019-03-23T05:41:33.086Z,1016.31
2019-03-23T05:42:33.057Z,1016.31
2019-03-23T05:43:32.976Z,1016.34
2019-03-23T05:44:32.919Z,1016.32
2019-03-23T05:45:32.865Z,1016.29
2019-03-23T05:46:32.814Z,1016.29
2019-03-23T05:47:32.784Z,1016.24
2019-03-23T05:48:32.703Z,1016.28
2019-03-23T05:49:32.719Z,1016.32
2019-03-23T05:50:32.598Z,1016.38
2019-03-23T05:51:32.542Z,1016.43
2019-03-23T05:52:32.510Z,1016.50
2019-03-23T05:53:32.430Z,1016.51
2019-03-23T05:54:32.378Z,1016.58
2019-03-23T05:55:32.322Z,1016.64
2019-03-23T05:56:32.279Z,1016.64
2019-03-23T05:57:32.235Z,1016.68
2019-03-23T05:58:32.156Z,1016.67
2019-03-23T05:59:32.104Z,1016.64
2019-03-23T06:00:32.048Z,1016.61
2019-03-23T06:01:31.996Z,1016.62
2019-03-23T06:02:31.963Z,1016.68
2019-03-23T06:03:31.897Z,1016.72
2019-03-23T06:04:31.834Z,1016.68
2019-03-23T06:05:31.776Z,1016.70
2019-03-23T06:06:31.721Z,1016.72
2019-03-23T06:07:31.694Z,1016.75
2019-03-23T06:08:31.622Z,1016.76
2019-03-23T06:09:31.558Z,1016.77
2019-03-23T06:10:31.503Z,1016.79
2019-03-23T06:11:31.456Z,1016.81
2019-03-23T06:12:31.420Z,1016.83
2019-03-23T06:13:31.345Z,1016.86
2019-03-23T06:14:31.290Z,1016.89
2019-03-23T06:15:31.236Z,1016.90
2019-03-23T06:16:31.182Z,1016.97
2019-03-23T06:17:31.157Z,1016.92
2019-03-23T06:18:31.074Z,1016.96
2019-03-23T06:19:31.025Z,1016.99
2019-03-23T06:20:30.958Z,1016.97
2019-03-23T06:21:30.907Z,1017.00
2019-03-23T06:22:30.874Z,1017.01
2019-03-23T06:23:30.795Z,1016.98
2019-03-23T06:24:30.744Z,1017.08
2019-03-23T06:25:30.687Z,1017.02
2019-03-23T06:26:30.633Z,1017.05
2019-03-23T06:27:30.605Z,1017.08
2019-03-23T06:28:30.526Z,1017.09
2019-03-23T06:29:30.473Z,1017.08
2019-03-23T06:30:30.411Z,1017.09
2019-03-23T06:31:30.355Z,1017.11
2019-03-23T06:32:30.328Z,1017.05
2019-03-23T06:33:30.246Z,1017.07
2019-03-23T06:34:30.191Z,1017.06
2019-03-23T06:35:30.139Z,1017.04
2019-03-23T06:36:30.086Z,1017.12
2019-03-23T06:37:30.049Z,1017.13
2019-03-23T06:38:29.972Z,1017.14
2019-03-23T06:39:29.918Z,1017.22
2019-03-23T06:40:29.865Z,1017.21
2019-03-23T06:41:29.805Z,1017.22
2019-03-23T06:42:29.746Z,1017.22
2019-03-23T06:43:29.725Z,1017.22
2019-03-23T06:44:29.645Z,1017.24
2019-03-23T06:45:29.593Z,1017.26
2019-03-23T06:46:29.532Z,1017.29
2019-03-23T06:47:29.474Z,1017.35
2019-03-23T06:48:29.448Z,1017.30
2019-03-23T06:49:29.366Z,1017.34
2019-03-23T06:50:29.312Z,1017.35
2019-03-23T06:51:29.260Z,1017.36
2019-03-23T06:52:29.207Z,1017.35
2019-03-23T06:53:29.173Z,1017.34
2019-03-23T06:54:29.090Z,1017.35
2019-03-23T06:55:29.035Z,1017.39
2019-03-23T06:56:28.979Z,1017.34
2019-03-23T06:57:28.921Z,1017.33
2019-03-23T06:58:28.895Z,1017.34
2019-03-23T06:59:28.814Z,1017.34
2019-03-23T07:00:28.758Z,1017.33
2019-03-23T07:01:28.707Z,1017.32
2019-03-23T07:02:28.654Z,1017.35
2019-03-23T07:03:28.622Z,1017.34
2019-03-23T07:04:28.540Z,1017.33
2019-03-23T07:05:28.493Z,1017.34
2019-03-23T07:06:28.437Z,1017.37
2019-03-23T07:07:28.374Z,1017.37
2019-03-23T07:08:32.199Z,1017.38
2019-03-23T07:09:28.264Z,1017.36
2019-03-23T07:10:28.206Z,1017.38
2019-03-23T07:11:28.155Z,1017.39
2019-03-23T07:12:28.098Z,1017.43
2019-03-23T07:13:28.090Z,1017.42
2019-03-23T07:14:27.982Z,1017.45
2019-03-23T07:15:27.941Z,1017.48
2019-03-23T07:16:27.879Z,1017.47
2019-03-23T07:17:27.823Z,1017.45
2019-03-23T07:18:27.800Z,1017.46
2019-03-23T07:19:27.714Z,1017.49
2019-03-23T07:20:27.659Z,1017.47
2019-03-23T07:21:27.603Z,1017.53
2019-03-23T07:22:27.548Z,1017.53
2019-03-23T07:23:27.517Z,1017.51
2019-03-23T07:24:27.440Z,1017.58
2019-03-23T07:25:27.390Z,1017.56
2019-03-23T07:26:27.329Z,1017.55
2019-03-23T07:27:27.269Z,1017.55
2019-03-23T07:28:27.238Z,1017.57
2019-03-23T07:29:27.169Z,1017.57
2019-03-23T07:30:27.111Z,1017.60
2019-03-23T07:31:27.053Z,1017.56
2019-03-23T07:32:27.003Z,1017.61
2019-03-23T07:33:26.965Z,1017.57
2019-03-23T07:34:26.883Z,1017.61
2019-03-23T07:35:26.831Z,1017.58
2019-03-23T07:36:26.779Z,1017.57
2019-03-23T07:37:26.728Z,1017.62
2019-03-23T07:38:26.692Z,1017.60
2019-03-23T07:39:29.285Z,1017.59
2019-03-23T07:40:26.562Z,1017.54
2019-03-23T07:41:26.508Z,1017.49
2019-03-23T07:42:26.454Z,1017.54
2019-03-23T07:43:26.416Z,1017.52
2019-03-23T07:44:26.342Z,1017.55
2019-03-23T07:45:26.286Z,1017.46
2019-03-23T07:46:26.229Z,1017.53
2019-03-23T07:47:26.187Z,1017.51
2019-03-23T07:48:28.464Z,1017.55
2019-03-23T07:49:26.067Z,1017.62
2019-03-23T07:50:26.040Z,1017.59
2019-03-23T07:51:25.963Z,1017.61
2019-03-23T07:52:25.907Z,1017.60
2019-03-23T07:53:25.845Z,1017.64
2019-03-23T07:54:25.818Z,1017.64
2019-03-23T07:55:25.740Z,1017.65
2019-03-23T07:56:25.685Z,1017.62
2019-03-23T07:57:25.631Z,1017.64
2019-03-23T07:58:25.576Z,1017.65
2019-03-23T07:59:25.545Z,1017.60
2019-03-23T08:00:25.465Z,1017.61
2019-03-23T08:01:25.415Z,1017.59
2019-03-23T08:02:25.355Z,1017.59
2019-03-23T08:03:25.301Z,1017.57
2019-03-23T08:04:25.280Z,1017.55
2019-03-23T08:05:25.188Z,1017.61
2019-03-23T08:06:25.139Z,1017.59
2019-03-23T08:07:25.082Z,1017.65
2019-03-23T08:08:25.059Z,1017.60
2019-03-23T08:09:25.001Z,1017.59
2019-03-23T08:10:24.916Z,1017.58
2019-03-23T08:11:24.871Z,1017.62
2019-03-23T08:12:24.810Z,1017.65
2019-03-23T08:13:24.782Z,1017.63
2019-03-23T08:14:24.723Z,1017.68
2019-03-23T08:15:24.643Z,1017.69
2019-03-23T08:16:24.592Z,1017.66
2019-03-23T08:17:24.536Z,1017.69
2019-03-23T08:18:24.476Z,1017.70
2019-03-23T08:19:24.478Z,1017.66
2019-03-23T08:20:24.371Z,1017.66
2019-03-23T08:21:24.323Z,1017.68
2019-03-23T08:22:24.366Z,1017.69
2019-03-23T08:23:24.231Z,1017.70
2019-03-23T08:24:24.181Z,1017.67
2019-03-23T08:25:24.101Z,1017.67
2019-03-23T08:26:24.051Z,1017.63
2019-03-23T08:27:23.994Z,1017.66
2019-03-23T08:28:23.939Z,1017.65
2019-03-23T08:29:23.911Z,1017.63
2019-03-23T08:30:23.850Z,1017.64
2019-03-23T08:31:23.801Z,1017.62
2019-03-23T08:32:23.730Z,1017.63
2019-03-23T08:33:23.670Z,1017.64
2019-03-23T08:34:23.639Z,1017.67
2019-03-23T08:35:23.563Z,1017.67
2019-03-23T08:36:23.508Z,1017.71
2019-03-23T08:37:23.572Z,1017.74
2019-03-23T08:38:23.419Z,1017.72
2019-03-23T08:39:23.371Z,1017.75
2019-03-23T08:40:23.294Z,1017.72
2019-03-23T08:41:23.239Z,1017.77
2019-03-23T08:42:23.187Z,1017.74
2019-03-23T08:43:23.132Z,1017.78
2019-03-23T08:44:23.101Z,1017.77
2019-03-23T08:45:23.027Z,1017.76
2019-03-23T08:46:22.980Z,1017.81
2019-03-23T08:47:22.914Z,1017.81
2019-03-23T08:48:22.865Z,1017.85
2019-03-23T08:49:22.829Z,1017.83
2019-03-23T08:50:22.756Z,1017.83
2019-03-23T08:51:22.706Z,1017.82
2019-03-23T08:52:22.649Z,1017.87
2019-03-23T08:53:22.599Z,1017.88
2019-03-23T08:54:22.566Z,1017.85
2019-03-23T08:55:22.495Z,1017.86
2019-03-23T08:56:22.441Z,1017.82
2019-03-23T08:57:22.386Z,1017.81
2019-03-23T08:58:22.328Z,1017.81
2019-03-23T08:59:22.298Z,1017.86
2019-03-23T09:00:22.223Z,1017.85
2019-03-23T09:01:22.173Z,1017.85
2019-03-23T09:02:22.112Z,1017.82
2019-03-23T09:03:22.073Z,1017.83
2019-03-23T09:04:22.037Z,1017.88
2019-03-23T09:05:21.959Z,1017.88
2019-03-23T09:06:21.905Z,1017.88
2019-03-23T09:07:21.850Z,1017.90
2019-03-23T09:08:21.800Z,1017.90
2019-03-23T09:09:21.772Z,1017.89
2019-03-23T09:10:21.693Z,1017.90
2019-03-23T09:11:21.637Z,1017.94
2019-03-23T09:12:21.600Z,1017.97
2019-03-23T09:13:21.535Z,1017.91
2019-03-23T09:14:23.430Z,1017.91
2019-03-23T09:15:21.428Z,1017.95
2019-03-23T09:16:21.383Z,1017.95
2019-03-23T09:17:21.317Z,1017.91
2019-03-23T09:18:21.275Z,1017.93
2019-03-23T09:19:21.300Z,1017.96
2019-03-23T09:20:21.163Z,1017.94
2019-03-23T09:21:21.111Z,1017.95
2019-03-23T09:22:21.056Z,1017.93
2019-03-23T09:23:20.998Z,1017.94
2019-03-23T09:24:21.030Z,1017.93
2019-03-23T09:25:20.889Z,1017.95
2019-03-23T09:26:20.846Z,1017.92
2019-03-23T09:27:20.790Z,1017.93
2019-03-23T09:28:20.740Z,1017.93
2019-03-23T09:29:20.687Z,1017.97
2019-03-23T09:30:20.644Z,1017.92
2019-03-23T09:31:20.585Z,1017.96
2019-03-23T09:32:20.527Z,1018.03
2019-03-23T09:33:20.476Z,1018.04
2019-03-23T09:34:20.424Z,1018.08
2019-03-23T09:35:20.397Z,1018.07
2019-03-23T09:36:22.905Z,1018.04
2019-03-23T09:37:20.265Z,1018.08
2019-03-23T09:38:20.214Z,1018.07
2019-03-23T09:39:20.163Z,1018.10
2019-03-23T09:40:20.135Z,1018.12
2019-03-23T09:41:20.052Z,1018.11
2019-03-23T09:42:20.006Z,1018.16
2019-03-23T09:43:19.959Z,1018.14
2019-03-23T09:44:19.896Z,1018.15
2019-03-23T09:45:19.870Z,1018.18
2019-03-23T09:46:19.790Z,1018.18
2019-03-23T09:47:19.744Z,1018.17
2019-03-23T09:48:19.684Z,1018.18
2019-03-23T09:49:21.944Z,1018.18
2019-03-23T09:50:19.611Z,1018.15
2019-03-23T09:51:19.533Z,1018.14
2019-03-23T09:52:19.481Z,1018.17
2019-03-23T09:53:19.429Z,1018.22
2019-03-23T09:54:19.376Z,1018.22
2019-03-23T09:55:19.344Z,1018.20
2019-03-23T09:56:19.277Z,1018.25
2019-03-23T09:57:19.215Z,1018.24
2019-03-23T09:58:19.162Z,1018.27
2019-03-23T09:59:19.111Z,1018.23
2019-03-23T10:00:19.089Z,1018.25
2019-03-23T10:01:19.004Z,1018.23
2019-03-23T10:02:18.958Z,1018.20
2019-03-23T10:03:18.901Z,1018.24
2019-03-23T10:04:18.850Z,1018.28
2019-03-23T10:05:18.822Z,1018.26
2019-03-23T10:06:18.746Z,1018.28
2019-03-23T10:07:18.704Z,1018.27
2019-03-23T10:08:18.649Z,1018.27
2019-03-23T10:09:18.586Z,1018.31
2019-03-23T10:10:22.084Z,1018.30
2019-03-23T10:11:18.488Z,1018.32
2019-03-23T10:12:18.437Z,1018.31
2019-03-23T10:13:18.378Z,1018.30
2019-03-23T10:14:18.339Z,1018.28
2019-03-23T10:15:18.298Z,1018.32
2019-03-23T10:16:18.230Z,1018.29
2019-03-23T10:17:18.174Z,1018.28
2019-03-23T10:18:18.146Z,1018.28
2019-03-23T10:19:18.068Z,1018.27
2019-03-23T10:20:18.044Z,1018.23
2019-03-23T10:21:17.968Z,1018.22
2019-03-23T10:22:17.913Z,1018.24
2019-03-23T10:23:17.864Z,1018.25
2019-03-23T10:24:17.978Z,1018.27
2019-03-23T10:25:18.049Z,1018.30
2019-03-23T10:26:17.993Z,1018.28
2019-03-23T10:27:17.794Z,1018.31
2019-03-23T10:28:17.605Z,1018.29
2019-03-23T10:29:17.549Z,1018.31
2019-03-23T10:30:17.540Z,1018.29
2019-03-23T10:31:18.138Z,1018.28
2019-03-23T10:33:58.995Z,1018.25
2019-03-23T10:34:58.808Z,1018.23
2019-03-23T10:35:58.781Z,1018.21
2019-03-23T10:36:58.647Z,1018.18
2019-03-23T10:37:58.831Z,1018.19
2019-03-23T10:38:58.904Z,1018.24
2019-03-23T10:39:58.501Z,1018.29
2019-03-23T10:40:58.445Z,1018.27
2019-03-23T10:41:58.382Z,1018.28
2019-03-23T10:42:58.319Z,1018.25
2019-03-23T10:43:58.270Z,1018.30
2019-03-23T10:44:58.215Z,1018.28
2019-03-23T10:45:58.187Z,1018.29
2019-03-23T10:46:58.121Z,1018.24
2019-03-23T10:47:58.060Z,1018.23
2019-03-23T10:48:58.007Z,1018.23
2019-03-23T10:49:58.001Z,1018.25
2019-03-23T10:50:57.926Z,1018.25
2019-03-23T10:51:57.859Z,1018.36
2019-03-23T10:52:57.851Z,1018.33
2019-03-23T10:53:57.751Z,1018.26
2019-03-23T10:54:57.701Z,1018.25
2019-03-23T10:55:57.668Z,1018.28
2019-03-23T10:56:57.594Z,1018.24
2019-03-23T10:57:57.601Z,1018.27
2019-03-23T10:58:57.520Z,1018.26
2019-03-23T10:59:57.437Z,1018.23
2019-03-23T11:00:57.448Z,1018.22
2019-03-23T11:01:57.337Z,1018.25
2019-03-23T11:02:57.288Z,1018.24
2019-03-23T11:03:57.239Z,1018.23
2019-03-23T11:04:57.188Z,1018.23
2019-03-23T11:05:57.152Z,1018.27
2019-03-23T11:06:57.084Z,1018.23
2019-03-23T11:07:57.907Z,1018.26
2019-03-23T11:08:56.988Z,1018.24
2019-03-23T11:09:56.931Z,1018.25
2019-03-23T11:10:56.897Z,1018.29
2019-03-23T11:11:56.824Z,1018.25
2019-03-23T11:12:56.776Z,1018.26
2019-03-23T11:13:56.721Z,1018.21
2019-03-23T11:14:56.697Z,1018.25
2019-03-23T11:15:56.642Z,1018.22
2019-03-23T11:16:56.590Z,1018.28
2019-03-23T11:17:56.518Z,1018.29
2019-03-23T11:18:56.468Z,1018.30
2019-03-23T11:19:58.387Z,1018.30
2019-03-23T11:20:56.471Z,1018.33
2019-03-23T11:21:56.318Z,1018.29
2019-03-23T11:22:56.262Z,1018.31
2019-03-23T11:23:59.088Z,1018.35
2019-03-23T11:24:56.162Z,1018.33
2019-03-23T11:25:56.143Z,1018.35
2019-03-23T11:26:56.052Z,1018.36
2019-03-23T11:27:56.012Z,1018.39
2019-03-23T11:28:55.955Z,1018.39
2019-03-23T11:29:56.047Z,1018.43
2019-03-23T11:30:58.170Z,1018.43
2019-03-23T11:31:55.874Z,1018.43
2019-03-23T11:32:55.739Z,1018.47
2019-03-23T11:33:55.726Z,1018.42
2019-03-23T11:34:57.660Z,1018.46
2019-03-23T11:35:57.958Z,1018.40
2019-03-23T11:36:55.570Z,1018.44
2019-03-23T11:37:55.764Z,1018.46
2019-03-23T11:38:55.450Z,1018.47
2019-03-23T11:39:55.390Z,1018.45
2019-03-23T11:40:55.456Z,1018.49
2019-03-23T11:41:55.318Z,1018.50
2019-03-23T11:42:55.244Z,1018.45
2019-03-23T11:43:55.305Z,1018.44
2019-03-23T11:44:55.282Z,1018.42
2019-03-23T11:45:55.099Z,1018.48
2019-03-23T11:46:55.051Z,1018.49
2019-03-23T11:47:54.988Z,1018.49
2019-03-23T11:48:54.939Z,1018.51
2019-03-23T11:49:54.884Z,1018.51
2019-03-23T11:50:54.980Z,1018.51
2019-03-23T11:51:54.804Z,1018.58
2019-03-23T11:52:54.734Z,1018.62
2019-03-23T11:53:54.681Z,1018.62
2019-03-23T11:54:54.638Z,1018.61
2019-03-23T11:55:54.579Z,1018.58
2019-03-23T11:56:54.553Z,1018.64
2019-03-23T11:57:54.480Z,1018.58
2019-03-23T11:58:54.427Z,1018.60
2019-03-23T11:59:54.379Z,1018.63
2019-03-23T12:00:54.327Z,1018.58
2019-03-23T12:01:54.303Z,1018.59
2019-03-23T12:02:54.235Z,1018.53
2019-03-23T12:03:54.177Z,1018.52
2019-03-23T12:04:54.132Z,1018.54
2019-03-23T12:05:54.081Z,1018.53
2019-03-23T12:06:54.057Z,1018.52